Ek-star — LAMT5 — position and weather

sailwx.info

Track history (hours):
 
Tides and Currents Weather Stations Pressure Air Temp Water Temp Dewpoint Dewpoint Depression Visibility Wind Speed Wind Dir Waves Ship Positions

Ek-star

Last reported at 2017-Feb-20 21:33 UTC. Time now 2017-Feb-20 22:23 UTC.
Position N 51°17' E 004°20'.

Length 135 m; draft 6 m.

Type: Ship. MMSI: 257433000.

Date/timePositionNaut miles runAvg speedWind from/ knotsBaromVisibWave heightAir tempDewpointWater temp
2017-Feb-20 21:33N 51°17' E 004°20'0 0.0
2017-Feb-20 20:09N 51°17' E 004°20'0 0.0
2017-Feb-20 19:27N 51°17' E 004°20'0 0.0
2017-Feb-20 18:33N 51°17' E 004°20'0 0.0
2017-Feb-20 17:33N 51°17' E 004°20'0 0.0
2017-Feb-20 16:27N 51°17' E 004°20'0 0.0
2017-Feb-20 15:32N 51°17' E 004°20'0 0.0
2017-Feb-20 14:32N 51°17' E 004°20'0 0.0
2017-Feb-20 13:32N 51°17' E 004°20'0 0.0
2017-Feb-20 12:32N 51°17' E 004°20'0 0.0
2017-Feb-20 11:26N 51°17' E 004°20'0 0.0
2017-Feb-20 10:32N 51°17' E 004°20'0 0.0
2017-Feb-20 09:29N 51°17' E 004°20'0 0.0
2017-Feb-20 08:32N 51°17' E 004°20'0 0.0
2017-Feb-20 07:26N 51°17' E 004°20'0 0.0
2017-Feb-20 06:32N 51°17' E 004°20'0 0.0
2017-Feb-20 05:33N 51°17' E 004°20'0 0.0
2017-Feb-20 04:33N 51°17' E 004°20'0 0.0
2017-Feb-20 03:23N 51°17' E 004°20'0 0.0
2017-Feb-20 02:33N 51°17' E 004°20'0 0.0
2017-Feb-19 22:33N 51°17' E 004°20'0 0.0
2017-Feb-19 21:32N 51°17' E 004°20'0 0.1
2017-Feb-19 20:33N 51°17' E 004°20'1 0.7
2017-Feb-19 19:33N 51°17' E 004°20'4 3.8
2017-Feb-19 18:29N 51°20' E 004°16'910.1
2017-Feb-19 17:33N 51°23' E 004°02'10 9.8
2017-Feb-19 16:33N 51°21' E 003°47'1010.1
2017-Feb-19 15:33N 51°25' E 003°32'1313.0
2017-Feb-19 14:33N 51°24' E 003°11'8 7.6
2017-Feb-19 13:31N 51°31' E 003°04'1413.3
2017-Feb-19 12:28N 51°43' E 003°15'14911.5
2017-Feb-18 23:33N 53°59' E 004°55'1211.8
2017-Feb-18 22:33N 54°10' E 005°02'25412.0
2017-Feb-18 01:21N 57°39' E 009°19'1012.5
2017-Feb-18 00:32N 57°43' E 009°36'1212.5
2017-Feb-17 23:33N 57°47' E 009°58'1313.3
2017-Feb-17 22:33N 57°48' E 010°22'1312.8
2017-Feb-17 21:33N 57°49' E 010°46'1312.5
2017-Feb-17 20:33N 57°43' E 011°07'1212.4
2017-Feb-17 19:33N 57°38' E 011°28'1010.3
2017-Feb-17 18:33N 57°40' E 011°47'3 3.1
2017-Feb-17 17:33N 57°41' E 011°52'0 0.0
2017-Feb-17 16:33N 57°41' E 011°52'0 0.0
2017-Feb-17 15:33N 57°41' E 011°52'0 0.0
2017-Feb-17 14:33N 57°41' E 011°52'0 0.0
2017-Feb-17 13:33N 57°41' E 011°52'0 0.0
2017-Feb-17 12:31N 57°41' E 011°52'0 0.0
2017-Feb-17 11:31N 57°41' E 011°52'0 0.0
2017-Feb-17 10:31N 57°41' E 011°52'0 0.0
2017-Feb-17 09:31N 57°41' E 011°52'0 0.0
2017-Feb-17 08:31N 57°41' E 011°52'0 0.0
2017-Feb-17 07:31N 57°41' E 011°52'0 0.0
2017-Feb-17 06:31N 57°41' E 011°52'0 0.0
2017-Feb-17 05:31N 57°41' E 011°52'0 0.0
2017-Feb-17 04:31N 57°41' E 011°52'0 0.0
2017-Feb-17 03:31N 57°41' E 011°52'0 0.0
2017-Feb-17 02:31N 57°41' E 011°52'0 0.0
2017-Feb-17 01:31N 57°41' E 011°52'0 0.0
2017-Feb-17 00:33N 57°41' E 011°52'0 0.0
2017-Feb-16 23:33N 57°41' E 011°52'0 0.0
2017-Feb-16 22:32N 57°41' E 011°52'1 0.7
2017-Feb-16 21:33N 57°41' E 011°51'5 5.2
2017-Feb-16 20:33N 57°39' E 011°42'5 5.5
2017-Feb-16 19:33N 57°34' E 011°38'0 0.1
2017-Feb-16 18:32N 57°34' E 011°38'0 0.0
2017-Feb-16 17:32N 57°34' E 011°38'0 0.0
2017-Feb-16 16:33N 57°34' E 011°38'0 0.0
2017-Feb-16 15:32N 57°34' E 011°38'0 0.0
2017-Feb-16 14:32N 57°34' E 011°38'0 0.0
2017-Feb-16 13:32N 57°34' E 011°38'0 0.0
2017-Feb-16 12:32N 57°34' E 011°38'0 0.0
2017-Feb-16 11:32N 57°34' E 011°38'0 0.0
2017-Feb-16 10:33N 57°34' E 011°38'0 0.0
2017-Feb-16 09:33N 57°34' E 011°38'0 0.0
2017-Feb-16 08:33N 57°34' E 011°38'0 0.0
2017-Feb-16 07:33N 57°34' E 011°38'0 0.0
2017-Feb-16 06:33N 57°34' E 011°38'0 0.0
2017-Feb-16 05:33N 57°34' E 011°38'0 0.0
2017-Feb-16 04:33N 57°34' E 011°38'0 0.0
2017-Feb-16 03:33N 57°34' E 011°38'0 0.0
2017-Feb-16 02:30N 57°34' E 011°38'0 0.0
2017-Feb-16 01:33N 57°34' E 011°38'0 0.0
2017-Feb-16 00:33N 57°34' E 011°38'0 0.1
2017-Feb-15 23:33N 57°34' E 011°38'0 0.0
2017-Feb-15 22:32N 57°34' E 011°38'0 0.0
2017-Feb-15 21:26N 57°34' E 011°38'0 0.0
2017-Feb-15 20:29N 57°34' E 011°38'0 0.0
2017-Feb-15 19:32N 57°34' E 011°38'0 0.1
2017-Feb-15 18:29N 57°34' E 011°38'0 0.0
2017-Feb-15 17:32N 57°34' E 011°38'0 0.0
2017-Feb-15 16:33N 57°34' E 011°38'0 0.0
2017-Feb-15 15:32N 57°34' E 011°38'0 0.0
2017-Feb-15 14:32N 57°34' E 011°38'0 0.0
2017-Feb-15 13:32N 57°34' E 011°38'0 0.0
2017-Feb-15 12:32N 57°34' E 011°38'0 0.1
2017-Feb-15 11:32N 57°34' E 011°38'6 5.9
2017-Feb-15 10:33N 57°37' E 011°30'1313.3
2017-Feb-15 09:33N 57°49' E 011°17'1413.7
2017-Feb-15 08:34N 58°01' E 011°08'1313.1
2017-Feb-15 07:33N 58°14' E 011°01'1312.7
2017-Feb-15 06:33N 58°26' E 010°53'1313.0
2017-Feb-15 05:33N 58°39' E 010°46'1313.1
2017-Feb-15 04:33N 58°51' E 010°40'1312.8
2017-Feb-15 03:34N 59°04' E 010°35'1312.6
2017-Feb-15 02:33N 59°16' E 010°36'1313.1
2017-Feb-15 01:33N 59°29' E 010°34'1212.3
2017-Feb-15 00:34N 59°42' E 010°36'1111.2
2017-Feb-14 23:34N 59°53' E 010°39'3 3.3
2017-Feb-14 22:34N 59°53' E 010°46'0 0.0
2017-Feb-14 21:33N 59°53' E 010°46'0 0.0
2017-Feb-14 20:33N 59°53' E 010°46'0 0.0
2017-Feb-14 19:33N 59°53' E 010°46'0 0.0
2017-Feb-14 18:33N 59°53' E 010°46'0 0.0
2017-Feb-14 17:33N 59°53' E 010°46'0 0.0
2017-Feb-14 16:33N 59°53' E 010°46'0 0.0
2017-Feb-14 15:33N 59°53' E 010°46'0 0.0
2017-Feb-14 14:33N 59°53' E 010°46'0 0.0
2017-Feb-14 13:33N 59°53' E 010°46'0 0.0
2017-Feb-14 12:33N 59°53' E 010°46'0 0.0
2017-Feb-14 11:34N 59°53' E 010°46'0 0.0
2017-Feb-14 10:34N 59°53' E 010°46'0 0.0
2017-Feb-14 09:33N 59°53' E 010°46'0 0.0
2017-Feb-14 08:33N 59°53' E 010°46'0 0.0
2017-Feb-14 07:34N 59°53' E 010°46'0 0.0
2017-Feb-14 06:34N 59°53' E 010°46'2 1.7
2017-Feb-14 05:34N 59°53' E 010°42'1010.2
2017-Feb-14 04:34N 59°43' E 010°35'1111.5
2017-Feb-14 03:33N 59°32' E 010°36'1312.5
2017-Feb-14 02:33N 59°19' E 010°36'1212.3
2017-Feb-14 01:33N 59°07' E 010°37'1111.1
2017-Feb-14 00:34N 58°56' E 010°39'1212.5
2017-Feb-13 23:34N 58°44' E 010°46'1212.4
2017-Feb-13 22:34N 58°32' E 010°51'1312.5
2017-Feb-13 21:33N 58°19' E 010°57'1212.4
2017-Feb-13 20:34N 58°08' E 011°04'1212.0
2017-Feb-13 19:34N 57°56' E 011°10'1211.7
2017-Feb-13 18:33N 57°45' E 011°17'1211.8
2017-Feb-13 17:34N 57°34' E 011°23'1212.3
2017-Feb-13 16:33N 57°22' E 011°30'1312.6
2017-Feb-13 15:33N 57°10' E 011°38'1212.5
2017-Feb-13 14:33N 56°59' E 011°47'1411.9
2017-Feb-13 13:25N 56°46' E 011°54'1112.9
2017-Feb-13 12:34N 56°36' E 011°44'1412.6
2017-Feb-13 11:28N 56°24' E 011°32'1111.9
2017-Feb-13 10:32N 56°15' E 011°21'1212.1
2017-Feb-13 09:33N 56°05' E 011°08'2411.8
2017-Feb-13 07:32N 55°44' E 010°50'81 1.9
2017-Feb-11 13:27N 56°59' E 011°43'1112.0
2017-Feb-11 12:33N 57°09' E 011°37'1111.3
2017-Feb-11 11:33N 57°20' E 011°35'1211.9
2017-Feb-11 10:33N 57°32' E 011°39'1 0.6
2017-Feb-11 09:32N 57°33' E 011°39'0 0.0
2017-Feb-11 08:32N 57°33' E 011°39'0 0.0
2017-Feb-11 07:32N 57°33' E 011°39'5 5.1
2017-Feb-11 06:33N 57°36' E 011°32'1111.4
2017-Feb-11 05:33N 57°41' E 011°13'1211.6
2017-Feb-11 04:34N 57°46' E 010°53'5410.8
2017-Feb-10 23:32N 57°37' E 009°13'1111.4
2017-Feb-10 22:33N 57°31' E 008°55'1111.2
2017-Feb-10 21:33N 57°23' E 008°39'  
Track history (hours):
 
Tides and Currents Weather Stations Pressure Air Temp Water Temp Dewpoint Dewpoint Depression Visibility Wind Speed Wind Dir Waves Ship Positions

Ek-star

Last reported at 2017-Feb-20 21:33 UTC. Time now 2017-Feb-20 22:23 UTC.
Position N 51°17' E 004°20'.

Length 135 m; draft 6 m.

Type: Ship. MMSI: 257433000.

Date/timePositionNaut miles runAvg speedWind from/ knotsBaromVisibWave heightAir tempDewpointWater temp
2017-Feb-20 21:33N 51°17' E 004°20'0 0.0
2017-Feb-20 20:09N 51°17' E 004°20'0 0.0
2017-Feb-20 19:27N 51°17' E 004°20'0 0.0
2017-Feb-20 18:33N 51°17' E 004°20'0 0.0
2017-Feb-20 17:33N 51°17' E 004°20'0 0.0
2017-Feb-20 16:27N 51°17' E 004°20'0 0.0
2017-Feb-20 15:32N 51°17' E 004°20'0 0.0
2017-Feb-20 14:32N 51°17' E 004°20'0 0.0
2017-Feb-20 13:32N 51°17' E 004°20'0 0.0
2017-Feb-20 12:32N 51°17' E 004°20'0 0.0
2017-Feb-20 11:26N 51°17' E 004°20'0 0.0
2017-Feb-20 10:32N 51°17' E 004°20'0 0.0
2017-Feb-20 09:29N 51°17' E 004°20'0 0.0
2017-Feb-20 08:32N 51°17' E 004°20'0 0.0
2017-Feb-20 07:26N 51°17' E 004°20'0 0.0
2017-Feb-20 06:32N 51°17' E 004°20'0 0.0
2017-Feb-20 05:33N 51°17' E 004°20'0 0.0
2017-Feb-20 04:33N 51°17' E 004°20'0 0.0
2017-Feb-20 03:23N 51°17' E 004°20'0 0.0
2017-Feb-20 02:33N 51°17' E 004°20'0 0.0
2017-Feb-19 22:33N 51°17' E 004°20'0 0.0
2017-Feb-19 21:32N 51°17' E 004°20'0 0.1
2017-Feb-19 20:33N 51°17' E 004°20'1 0.7
2017-Feb-19 19:33N 51°17' E 004°20'4 3.8
2017-Feb-19 18:29N 51°20' E 004°16'910.1
2017-Feb-19 17:33N 51°23' E 004°02'10 9.8
2017-Feb-19 16:33N 51°21' E 003°47'1010.1
2017-Feb-19 15:33N 51°25' E 003°32'1313.0
2017-Feb-19 14:33N 51°24' E 003°11'8 7.6
2017-Feb-19 13:31N 51°31' E 003°04'1413.3
2017-Feb-19 12:28N 51°43' E 003°15'14911.5
2017-Feb-18 23:33N 53°59' E 004°55'1211.8
2017-Feb-18 22:33N 54°10' E 005°02'25412.0
2017-Feb-18 01:21N 57°39' E 009°19'1012.5
2017-Feb-18 00:32N 57°43' E 009°36'1212.5
2017-Feb-17 23:33N 57°47' E 009°58'1313.3
2017-Feb-17 22:33N 57°48' E 010°22'1312.8
2017-Feb-17 21:33N 57°49' E 010°46'1312.5
2017-Feb-17 20:33N 57°43' E 011°07'1212.4
2017-Feb-17 19:33N 57°38' E 011°28'1010.3
2017-Feb-17 18:33N 57°40' E 011°47'3 3.1
2017-Feb-17 17:33N 57°41' E 011°52'0 0.0
2017-Feb-17 16:33N 57°41' E 011°52'0 0.0
2017-Feb-17 15:33N 57°41' E 011°52'0 0.0
2017-Feb-17 14:33N 57°41' E 011°52'0 0.0
2017-Feb-17 13:33N 57°41' E 011°52'0 0.0
2017-Feb-17 12:31N 57°41' E 011°52'0 0.0
2017-Feb-17 11:31N 57°41' E 011°52'0 0.0
2017-Feb-17 10:31N 57°41' E 011°52'0 0.0
2017-Feb-17 09:31N 57°41' E 011°52'0 0.0
2017-Feb-17 08:31N 57°41' E 011°52'0 0.0
2017-Feb-17 07:31N 57°41' E 011°52'0 0.0
2017-Feb-17 06:31N 57°41' E 011°52'0 0.0
2017-Feb-17 05:31N 57°41' E 011°52'0 0.0
2017-Feb-17 04:31N 57°41' E 011°52'0 0.0
2017-Feb-17 03:31N 57°41' E 011°52'0 0.0
2017-Feb-17 02:31N 57°41' E 011°52'0 0.0
2017-Feb-17 01:31N 57°41' E 011°52'0 0.0
2017-Feb-17 00:33N 57°41' E 011°52'0 0.0
2017-Feb-16 23:33N 57°41' E 011°52'0 0.0
2017-Feb-16 22:32N 57°41' E 011°52'1 0.7
2017-Feb-16 21:33N 57°41' E 011°51'5 5.2
2017-Feb-16 20:33N 57°39' E 011°42'5 5.5
2017-Feb-16 19:33N 57°34' E 011°38'0 0.1
2017-Feb-16 18:32N 57°34' E 011°38'0 0.0
2017-Feb-16 17:32N 57°34' E 011°38'0 0.0
2017-Feb-16 16:33N 57°34' E 011°38'0 0.0
2017-Feb-16 15:32N 57°34' E 011°38'0 0.0
2017-Feb-16 14:32N 57°34' E 011°38'0 0.0
2017-Feb-16 13:32N 57°34' E 011°38'0 0.0
2017-Feb-16 12:32N 57°34' E 011°38'0 0.0
2017-Feb-16 11:32N 57°34' E 011°38'0 0.0
2017-Feb-16 10:33N 57°34' E 011°38'0 0.0
2017-Feb-16 09:33N 57°34' E 011°38'0 0.0
2017-Feb-16 08:33N 57°34' E 011°38'0 0.0
2017-Feb-16 07:33N 57°34' E 011°38'0 0.0
2017-Feb-16 06:33N 57°34' E 011°38'0 0.0
2017-Feb-16 05:33N 57°34' E 011°38'0 0.0
2017-Feb-16 04:33N 57°34' E 011°38'0 0.0
2017-Feb-16 03:33N 57°34' E 011°38'0 0.0
2017-Feb-16 02:30N 57°34' E 011°38'0 0.0
2017-Feb-16 01:33N 57°34' E 011°38'0 0.0
2017-Feb-16 00:33N 57°34' E 011°38'0 0.1
2017-Feb-15 23:33N 57°34' E 011°38'0 0.0
2017-Feb-15 22:32N 57°34' E 011°38'0 0.0
2017-Feb-15 21:26N 57°34' E 011°38'0 0.0
2017-Feb-15 20:29N 57°34' E 011°38'0 0.0
2017-Feb-15 19:32N 57°34' E 011°38'0 0.1
2017-Feb-15 18:29N 57°34' E 011°38'0 0.0
2017-Feb-15 17:32N 57°34' E 011°38'0 0.0
2017-Feb-15 16:33N 57°34' E 011°38'0 0.0
2017-Feb-15 15:32N 57°34' E 011°38'0 0.0
2017-Feb-15 14:32N 57°34' E 011°38'0 0.0
2017-Feb-15 13:32N 57°34' E 011°38'0 0.0
2017-Feb-15 12:32N 57°34' E 011°38'0 0.1
2017-Feb-15 11:32N 57°34' E 011°38'6 5.9
2017-Feb-15 10:33N 57°37' E 011°30'1313.3
2017-Feb-15 09:33N 57°49' E 011°17'1413.7
2017-Feb-15 08:34N 58°01' E 011°08'1313.1
2017-Feb-15 07:33N 58°14' E 011°01'1312.7
2017-Feb-15 06:33N 58°26' E 010°53'1313.0
2017-Feb-15 05:33N 58°39' E 010°46'1313.1
2017-Feb-15 04:33N 58°51' E 010°40'1312.8
2017-Feb-15 03:34N 59°04' E 010°35'1312.6
2017-Feb-15 02:33N 59°16' E 010°36'1313.1
2017-Feb-15 01:33N 59°29' E 010°34'1212.3
2017-Feb-15 00:34N 59°42' E 010°36'1111.2
2017-Feb-14 23:34N 59°53' E 010°39'3 3.3
2017-Feb-14 22:34N 59°53' E 010°46'0 0.0
2017-Feb-14 21:33N 59°53' E 010°46'0 0.0
2017-Feb-14 20:33N 59°53' E 010°46'0 0.0
2017-Feb-14 19:33N 59°53' E 010°46'0 0.0
2017-Feb-14 18:33N 59°53' E 010°46'0 0.0
2017-Feb-14 17:33N 59°53' E 010°46'0 0.0
2017-Feb-14 16:33N 59°53' E 010°46'0 0.0
2017-Feb-14 15:33N 59°53' E 010°46'0 0.0
2017-Feb-14 14:33N 59°53' E 010°46'0 0.0
2017-Feb-14 13:33N 59°53' E 010°46'0 0.0
2017-Feb-14 12:33N 59°53' E 010°46'0 0.0
2017-Feb-14 11:34N 59°53' E 010°46'0 0.0
2017-Feb-14 10:34N 59°53' E 010°46'0 0.0
2017-Feb-14 09:33N 59°53' E 010°46'0 0.0
2017-Feb-14 08:33N 59°53' E 010°46'0 0.0
2017-Feb-14 07:34N 59°53' E 010°46'0 0.0
2017-Feb-14 06:34N 59°53' E 010°46'2 1.7
2017-Feb-14 05:34N 59°53' E 010°42'1010.2
2017-Feb-14 04:34N 59°43' E 010°35'1111.5
2017-Feb-14 03:33N 59°32' E 010°36'1312.5
2017-Feb-14 02:33N 59°19' E 010°36'1212.3
2017-Feb-14 01:33N 59°07' E 010°37'1111.1
2017-Feb-14 00:34N 58°56' E 010°39'1212.5
2017-Feb-13 23:34N 58°44' E 010°46'1212.4
2017-Feb-13 22:34N 58°32' E 010°51'1312.5
2017-Feb-13 21:33N 58°19' E 010°57'1212.4
2017-Feb-13 20:34N 58°08' E 011°04'1212.0
2017-Feb-13 19:34N 57°56' E 011°10'1211.7
2017-Feb-13 18:33N 57°45' E 011°17'1211.8
2017-Feb-13 17:34N 57°34' E 011°23'1212.3
2017-Feb-13 16:33N 57°22' E 011°30'1312.6
2017-Feb-13 15:33N 57°10' E 011°38'1212.5
2017-Feb-13 14:33N 56°59' E 011°47'1411.9
2017-Feb-13 13:25N 56°46' E 011°54'1112.9
2017-Feb-13 12:34N 56°36' E 011°44'1412.6
2017-Feb-13 11:28N 56°24' E 011°32'1111.9
2017-Feb-13 10:32N 56°15' E 011°21'1212.1
2017-Feb-13 09:33N 56°05' E 011°08'2411.8
2017-Feb-13 07:32N 55°44' E 010°50'81 1.9
2017-Feb-11 13:27N 56°59' E 011°43'1112.0
2017-Feb-11 12:33N 57°09' E 011°37'1111.3
2017-Feb-11 11:33N 57°20' E 011°35'1211.9
2017-Feb-11 10:33N 57°32' E 011°39'1 0.6
2017-Feb-11 09:32N 57°33' E 011°39'0 0.0
2017-Feb-11 08:32N 57°33' E 011°39'0 0.0
2017-Feb-11 07:32N 57°33' E 011°39'5 5.1
2017-Feb-11 06:33N 57°36' E 011°32'1111.4
2017-Feb-11 05:33N 57°41' E 011°13'1211.6
2017-Feb-11 04:34N 57°46' E 010°53'5410.8
2017-Feb-10 23:32N 57°37' E 009°13'1111.4
2017-Feb-10 22:33N 57°31' E 008°55'1111.2
2017-Feb-10 21:33N 57°23' E 008°39'  

Dump ship's entire track history